createdAt,value
2023-02-27T00:00:52.000Z,-3.44
2023-02-27T00:01:52.000Z,-3.43
2023-02-27T00:02:52.000Z,-3.49
2023-02-27T00:03:52.000Z,-3.47
2023-02-27T00:04:52.000Z,-3.54
2023-02-27T00:05:52.000Z,-3.57
2023-02-27T00:06:52.000Z,-3.62
2023-02-27T00:07:52.000Z,-3.65
2023-02-27T00:08:52.000Z,-3.62
2023-02-27T00:09:52.000Z,-3.65
2023-02-27T00:10:52.000Z,-3.71
2023-02-27T00:11:52.000Z,-3.76
2023-02-27T00:12:52.000Z,-3.72
2023-02-27T00:13:52.000Z,-3.76
2023-02-27T00:14:52.000Z,-3.81
2023-02-27T00:15:52.000Z,-3.81
2023-02-27T00:16:52.000Z,-3.84
2023-02-27T00:17:52.000Z,-3.81
2023-02-27T00:18:52.000Z,-3.87
2023-02-27T00:19:52.000Z,-3.89
2023-02-27T00:20:52.000Z,-3.90
2023-02-27T00:21:52.000Z,-3.91
2023-02-27T00:22:52.000Z,-3.87
2023-02-27T00:23:52.000Z,-3.91
2023-02-27T00:24:52.000Z,-3.91
2023-02-27T00:25:52.000Z,-3.99
2023-02-27T00:26:52.000Z,-3.96
2023-02-27T00:27:52.000Z,-4.01
2023-02-27T00:28:52.000Z,-4.04
2023-02-27T00:29:52.000Z,-4.04
2023-02-27T00:30:52.000Z,-4.04
2023-02-27T00:31:52.000Z,-4.08
2023-02-27T00:32:52.000Z,-4.07
2023-02-27T00:33:52.000Z,-4.07
2023-02-27T00:34:52.000Z,-4.08
2023-02-27T00:35:52.000Z,-4.08
2023-02-27T00:36:52.000Z,-4.09
2023-02-27T00:37:52.000Z,-4.09
2023-02-27T00:38:52.000Z,-4.09
2023-02-27T00:39:52.000Z,-4.12
2023-02-27T00:40:52.000Z,-4.15
2023-02-27T00:41:52.000Z,-4.14
2023-02-27T00:42:52.000Z,-4.15
2023-02-27T00:43:52.000Z,-4.14
2023-02-27T00:44:52.000Z,-4.09
2023-02-27T00:45:52.000Z,-4.12
2023-02-27T00:46:52.000Z,-4.09
2023-02-27T00:47:52.000Z,-4.09
2023-02-27T00:48:52.000Z,-4.14
2023-02-27T00:49:52.000Z,-4.11
2023-02-27T00:50:52.000Z,-4.11
2023-02-27T00:51:52.000Z,-4.09
2023-02-27T00:52:52.000Z,-4.14
2023-02-27T00:53:52.000Z,-4.12
2023-02-27T00:54:52.000Z,-4.12
2023-02-27T00:55:52.000Z,-4.12
2023-02-27T00:56:52.000Z,-4.09
2023-02-27T00:57:52.000Z,-4.09
2023-02-27T00:58:52.000Z,-4.09
2023-02-27T00:59:52.000Z,-4.11
2023-02-27T01:00:52.000Z,-4.18
2023-02-27T01:01:52.000Z,-4.23
2023-02-27T01:02:52.000Z,-4.23
2023-02-27T01:03:52.000Z,-4.25
2023-02-27T01:04:52.000Z,-4.30
2023-02-27T01:05:52.000Z,-4.33
2023-02-27T01:06:52.000Z,-4.36
2023-02-27T01:07:52.000Z,-4.33
2023-02-27T01:08:52.000Z,-4.40
2023-02-27T01:09:52.000Z,-4.38
2023-02-27T01:10:52.000Z,-4.46
2023-02-27T01:11:52.000Z,-4.46
2023-02-27T01:12:52.000Z,-4.44
2023-02-27T01:13:52.000Z,-4.47
2023-02-27T01:14:52.000Z,-4.48
2023-02-27T01:15:52.000Z,-4.46
2023-02-27T01:16:52.000Z,-4.48
2023-02-27T01:17:52.000Z,-4.51
2023-02-27T01:18:52.000Z,-4.51
2023-02-27T01:19:52.000Z,-4.55
2023-02-27T01:20:52.000Z,-4.58
2023-02-27T01:21:52.000Z,-4.58
2023-02-27T01:22:52.000Z,-4.58
2023-02-27T01:23:52.000Z,-4.59
2023-02-27T01:24:52.000Z,-4.58
2023-02-27T01:25:53.000Z,-4.57
2023-02-27T01:26:53.000Z,-4.55
2023-02-27T01:27:53.000Z,-4.51
2023-02-27T01:28:53.000Z,-4.54
2023-02-27T01:29:53.000Z,-4.50
2023-02-27T01:30:53.000Z,-4.47
2023-02-27T01:31:53.000Z,-4.47
2023-02-27T01:32:53.000Z,-4.38
2023-02-27T01:33:53.000Z,-4.48
2023-02-27T01:34:53.000Z,-4.44
2023-02-27T01:35:53.000Z,-4.44
2023-02-27T01:36:53.000Z,-4.40
2023-02-27T01:37:53.000Z,-4.38
2023-02-27T01:38:53.000Z,-4.36
2023-02-27T01:39:53.000Z,-4.32
2023-02-27T01:40:53.000Z,-4.28
2023-02-27T01:41:53.000Z,-4.25
2023-02-27T01:42:53.000Z,-4.15
2023-02-27T01:43:53.000Z,-4.18
2023-02-27T01:44:53.000Z,-4.12
2023-02-27T01:45:53.000Z,-4.08
2023-02-27T01:46:53.000Z,-4.07
2023-02-27T01:47:53.000Z,-3.98
2023-02-27T01:48:53.000Z,-4.01
2023-02-27T01:49:53.000Z,-3.96
2023-02-27T01:50:53.000Z,-3.96
2023-02-27T01:51:53.000Z,-3.91
2023-02-27T01:52:53.000Z,-3.90
2023-02-27T01:53:53.000Z,-3.87
2023-02-27T01:54:53.000Z,-3.84
2023-02-27T01:55:53.000Z,-3.81
2023-02-27T01:56:53.000Z,-3.75
2023-02-27T01:57:53.000Z,-3.71
2023-02-27T01:58:53.000Z,-3.68
2023-02-27T01:59:53.000Z,-3.67
2023-02-27T02:00:53.000Z,-3.61
2023-02-27T02:01:53.000Z,-3.56
2023-02-27T02:02:53.000Z,-3.51
2023-02-27T02:03:53.000Z,-3.46
2023-02-27T02:04:53.000Z,-3.43
2023-02-27T02:05:53.000Z,-3.39
2023-02-27T02:06:53.000Z,-3.31
2023-02-27T02:07:53.000Z,-3.25
2023-02-27T02:08:53.000Z,-3.22
2023-02-27T02:09:53.000Z,-3.17
2023-02-27T02:10:53.000Z,-3.17
2023-02-27T02:11:53.000Z,-3.14
2023-02-27T02:12:53.000Z,-3.13
2023-02-27T02:13:53.000Z,-3.08
2023-02-27T02:14:53.000Z,-3.07
2023-02-27T02:15:53.000Z,-3.07
2023-02-27T02:16:53.000Z,-3.02
2023-02-27T02:17:53.000Z,-3.00
2023-02-27T02:18:53.000Z,-2.96
2023-02-27T02:19:53.000Z,-2.96
2023-02-27T02:20:53.000Z,-2.93
2023-02-27T02:21:53.000Z,-2.92
2023-02-27T02:22:53.000Z,-2.87
2023-02-27T02:23:53.000Z,-2.87
2023-02-27T02:24:53.000Z,-2.85
2023-02-27T02:25:53.000Z,-2.85
2023-02-27T02:26:53.000Z,-2.85
2023-02-27T02:27:53.000Z,-2.78
2023-02-27T02:28:53.000Z,-2.76
2023-02-27T02:29:53.000Z,-2.74
2023-02-27T02:30:53.000Z,-2.69
2023-02-27T02:31:53.000Z,-2.69
2023-02-27T02:32:53.000Z,-2.68
2023-02-27T02:33:53.000Z,-2.66
2023-02-27T02:34:53.000Z,-2.66
2023-02-27T02:35:53.000Z,-2.63
2023-02-27T02:36:53.000Z,-2.60
2023-02-27T02:37:53.000Z,-2.60
2023-02-27T02:38:53.000Z,-2.54
2023-02-27T02:39:53.000Z,-2.54
2023-02-27T02:40:53.000Z,-2.56
2023-02-27T02:41:53.000Z,-2.53
2023-02-27T02:42:53.000Z,-2.54
2023-02-27T02:43:53.000Z,-2.50
2023-02-27T02:44:53.000Z,-2.50
2023-02-27T02:45:53.000Z,-2.47
2023-02-27T02:46:53.000Z,-2.43
2023-02-27T02:47:53.000Z,-2.42
2023-02-27T02:48:53.000Z,-2.43
2023-02-27T02:49:53.000Z,-2.39
2023-02-27T02:50:53.000Z,-2.42
2023-02-27T02:51:53.000Z,-2.38
2023-02-27T02:52:53.000Z,-2.35
2023-02-27T02:53:53.000Z,-2.35
2023-02-27T02:54:53.000Z,-2.36
2023-02-27T02:55:53.000Z,-2.32
2023-02-27T02:56:53.000Z,-2.33
2023-02-27T02:57:53.000Z,-2.29
2023-02-27T02:58:53.000Z,-2.24
2023-02-27T02:59:53.000Z,-2.23
2023-02-27T03:00:53.000Z,-2.20
2023-02-27T03:01:52.000Z,-2.23
2023-02-27T03:02:52.000Z,-2.20
2023-02-27T03:03:52.000Z,-2.23
2023-02-27T03:04:52.000Z,-2.21
2023-02-27T03:05:52.000Z,-2.20
2023-02-27T03:06:52.000Z,-2.18
2023-02-27T03:07:52.000Z,-2.20
2023-02-27T03:08:52.000Z,-2.17
2023-02-27T03:09:52.000Z,-2.16
2023-02-27T03:10:52.000Z,-2.13
2023-02-27T03:11:52.000Z,-2.16
2023-02-27T03:12:52.000Z,-2.10
2023-02-27T03:13:52.000Z,-2.13
2023-02-27T03:14:52.000Z,-2.11
2023-02-27T03:15:52.000Z,-2.02
2023-02-27T03:16:52.000Z,-2.05
2023-02-27T03:17:52.000Z,-2.05
2023-02-27T03:18:52.000Z,-2.00
2023-02-27T03:19:52.000Z,-1.98
2023-02-27T03:20:52.000Z,-2.02
2023-02-27T03:21:52.000Z,-2.02
2023-02-27T03:22:52.000Z,-1.99
2023-02-27T03:23:52.000Z,-1.99
2023-02-27T03:24:52.000Z,-1.98
2023-02-27T03:25:52.000Z,-1.98
2023-02-27T03:26:52.000Z,-1.98
2023-02-27T03:27:52.000Z,-1.98
2023-02-27T03:28:52.000Z,-1.95
2023-02-27T03:29:52.000Z,-1.93
2023-02-27T03:30:52.000Z,-1.90
2023-02-27T03:31:52.000Z,-1.93
2023-02-27T03:32:52.000Z,-1.87
2023-02-27T03:33:52.000Z,-1.87
2023-02-27T03:34:52.000Z,-1.87
2023-02-27T03:35:52.000Z,-1.84
2023-02-27T03:36:52.000Z,-1.84
2023-02-27T03:37:52.000Z,-1.87
2023-02-27T03:38:52.000Z,-1.85
2023-02-27T03:39:52.000Z,-1.82
2023-02-27T03:40:52.000Z,-1.82
2023-02-27T03:41:52.000Z,-1.82
2023-02-27T03:42:52.000Z,-1.82
2023-02-27T03:43:52.000Z,-1.81
2023-02-27T03:44:52.000Z,-1.82
2023-02-27T03:45:52.000Z,-1.81
2023-02-27T03:46:52.000Z,-1.84
2023-02-27T03:47:52.000Z,-1.81
2023-02-27T03:48:52.000Z,-1.80
2023-02-27T03:49:52.000Z,-1.81
2023-02-27T03:50:52.000Z,-1.82
2023-02-27T03:51:52.000Z,-1.78
2023-02-27T03:52:52.000Z,-1.80
2023-02-27T03:53:52.000Z,-1.78
2023-02-27T03:54:52.000Z,-1.82
2023-02-27T03:55:52.000Z,-1.82
2023-02-27T03:56:52.000Z,-1.80
2023-02-27T03:57:52.000Z,-1.81
2023-02-27T03:58:52.000Z,-1.80
2023-02-27T03:59:52.000Z,-1.81
2023-02-27T04:00:52.000Z,-1.81
2023-02-27T04:01:52.000Z,-1.80
2023-02-27T04:02:52.000Z,-1.81
2023-02-27T04:03:52.000Z,-1.82
2023-02-27T04:04:52.000Z,-1.80
2023-02-27T04:05:52.000Z,-1.77
2023-02-27T04:06:52.000Z,-1.74
2023-02-27T04:07:52.000Z,-1.78
2023-02-27T04:08:52.000Z,-1.77
2023-02-27T04:09:52.000Z,-1.74
2023-02-27T04:10:51.000Z,-1.75
2023-02-27T04:11:51.000Z,-1.78
2023-02-27T04:12:51.000Z,-1.75
2023-02-27T04:13:51.000Z,-1.77
2023-02-27T04:14:51.000Z,-1.77
2023-02-27T04:15:51.000Z,-1.78
2023-02-27T04:16:51.000Z,-1.74
2023-02-27T04:17:51.000Z,-1.70
2023-02-27T04:18:51.000Z,-1.75
2023-02-27T04:19:51.000Z,-1.72
2023-02-27T04:20:51.000Z,-1.74
2023-02-27T04:21:51.000Z,-1.75
2023-02-27T04:22:51.000Z,-1.74
2023-02-27T04:23:51.000Z,-1.74
2023-02-27T04:24:51.000Z,-1.70
2023-02-27T04:25:51.000Z,-1.72
2023-02-27T04:26:51.000Z,-1.72
2023-02-27T04:27:51.000Z,-1.72
2023-02-27T04:28:51.000Z,-1.69
2023-02-27T04:29:51.000Z,-1.72
2023-02-27T04:30:51.000Z,-1.74
2023-02-27T04:31:51.000Z,-1.67
2023-02-27T04:32:51.000Z,-1.67
2023-02-27T04:33:51.000Z,-1.69
2023-02-27T04:34:51.000Z,-1.64
2023-02-27T04:35:51.000Z,-1.69
2023-02-27T04:36:51.000Z,-1.66
2023-02-27T04:37:51.000Z,-1.66
2023-02-27T04:38:51.000Z,-1.69
2023-02-27T04:39:51.000Z,-1.64
2023-02-27T04:40:51.000Z,-1.69
2023-02-27T04:41:51.000Z,-1.66
2023-02-27T04:42:51.000Z,-1.64
2023-02-27T04:43:51.000Z,-1.64
2023-02-27T04:44:51.000Z,-1.66
2023-02-27T04:45:51.000Z,-1.60
2023-02-27T04:46:51.000Z,-1.60
2023-02-27T04:47:51.000Z,-1.63
2023-02-27T04:48:51.000Z,-1.62
2023-02-27T04:49:51.000Z,-1.64
2023-02-27T04:50:51.000Z,-1.62
2023-02-27T04:51:51.000Z,-1.62
2023-02-27T04:52:51.000Z,-1.62
2023-02-27T04:53:51.000Z,-1.63
2023-02-27T04:54:51.000Z,-1.67
2023-02-27T04:55:51.000Z,-1.64
2023-02-27T04:56:51.000Z,-1.63
2023-02-27T04:57:51.000Z,-1.67
2023-02-27T04:58:51.000Z,-1.64
2023-02-27T04:59:51.000Z,-1.66
2023-02-27T05:00:51.000Z,-1.66
2023-02-27T05:01:51.000Z,-1.67
2023-02-27T05:02:51.000Z,-1.64
2023-02-27T05:03:51.000Z,-1.62
2023-02-27T05:04:51.000Z,-1.62
2023-02-27T05:05:51.000Z,-1.66
2023-02-27T05:06:50.000Z,-1.64
2023-02-27T05:07:50.000Z,-1.60
2023-02-27T05:08:50.000Z,-1.59
2023-02-27T05:09:50.000Z,-1.60
2023-02-27T05:10:50.000Z,-1.59
2023-02-27T05:11:50.000Z,-1.63
2023-02-27T05:12:50.000Z,-1.59
2023-02-27T05:13:50.000Z,-1.60
2023-02-27T05:14:50.000Z,-1.54
2023-02-27T05:15:50.000Z,-1.56
2023-02-27T05:16:50.000Z,-1.54
2023-02-27T05:17:50.000Z,-1.49
2023-02-27T05:18:50.000Z,-1.51
2023-02-27T05:19:50.000Z,-1.49
2023-02-27T05:20:50.000Z,-1.53
2023-02-27T05:21:50.000Z,-1.56
2023-02-27T05:22:50.000Z,-1.57
2023-02-27T05:23:50.000Z,-1.57
2023-02-27T05:24:50.000Z,-1.62
2023-02-27T05:25:50.000Z,-1.62
2023-02-27T05:26:50.000Z,-1.62
2023-02-27T05:27:50.000Z,-1.66
2023-02-27T05:28:50.000Z,-1.67
2023-02-27T05:29:50.000Z,-1.70
2023-02-27T05:30:50.000Z,-1.70
2023-02-27T05:31:50.000Z,-1.80
2023-02-27T05:32:50.000Z,-1.75
2023-02-27T05:33:50.000Z,-1.80
2023-02-27T05:34:50.000Z,-1.84
2023-02-27T05:35:50.000Z,-1.87
2023-02-27T05:36:50.000Z,-1.85
2023-02-27T05:37:50.000Z,-1.92
2023-02-27T05:38:50.000Z,-1.95
2023-02-27T05:39:50.000Z,-1.99
2023-02-27T05:40:50.000Z,-2.00
2023-02-27T05:41:50.000Z,-1.99
2023-02-27T05:42:50.000Z,-2.03
2023-02-27T05:43:50.000Z,-2.10
2023-02-27T05:44:50.000Z,-2.08
2023-02-27T05:45:50.000Z,-2.16
2023-02-27T05:46:50.000Z,-2.17
2023-02-27T05:47:50.000Z,-2.18
2023-02-27T05:48:50.000Z,-2.23
2023-02-27T05:56:07.000Z,-2.38
2023-02-27T05:56:07.000Z,-2.35
2023-02-27T05:57:07.000Z,-2.38
2023-02-27T05:58:07.000Z,-2.36
2023-02-27T05:59:07.000Z,-2.36
2023-02-27T06:00:07.000Z,-2.43
2023-02-27T06:01:07.000Z,-2.42
2023-02-27T06:02:07.000Z,-2.39
2023-02-27T06:03:07.000Z,-2.40
2023-02-27T06:04:07.000Z,-2.43
2023-02-27T06:05:07.000Z,-2.43
2023-02-27T06:06:07.000Z,-2.48
2023-02-27T06:07:07.000Z,-2.45
2023-02-27T06:08:07.000Z,-2.48
2023-02-27T06:09:07.000Z,-2.51
2023-02-27T06:10:07.000Z,-2.51
2023-02-27T06:11:07.000Z,-2.56
2023-02-27T06:12:07.000Z,-2.54
2023-02-27T06:13:07.000Z,-2.60
2023-02-27T06:14:07.000Z,-2.60
2023-02-27T06:15:07.000Z,-2.61
2023-02-27T06:16:07.000Z,-2.61
2023-02-27T06:17:07.000Z,-2.68
2023-02-27T06:18:07.000Z,-2.63
2023-02-27T06:19:07.000Z,-2.68
2023-02-27T06:20:07.000Z,-2.75
2023-02-27T06:21:07.000Z,-2.76
2023-02-27T06:22:07.000Z,-2.78
2023-02-27T06:23:07.000Z,-2.78
2023-02-27T06:24:07.000Z,-2.86
2023-02-27T06:25:07.000Z,-2.87
2023-02-27T06:26:07.000Z,-2.89
2023-02-27T06:27:07.000Z,-2.93
2023-02-27T06:28:07.000Z,-2.96
2023-02-27T06:29:07.000Z,-2.94
2023-02-27T06:30:07.000Z,-2.99
2023-02-27T06:31:07.000Z,-2.96
2023-02-27T06:32:07.000Z,-3.00
2023-02-27T06:33:07.000Z,-2.93
2023-02-27T06:34:07.000Z,-2.97
2023-02-27T06:35:07.000Z,-2.94
2023-02-27T06:36:07.000Z,-2.96
2023-02-27T06:37:07.000Z,-2.93
2023-02-27T06:38:07.000Z,-2.94
2023-02-27T06:39:07.000Z,-2.93
2023-02-27T06:46:25.000Z,-2.81
2023-02-27T06:46:25.000Z,-2.81
2023-02-27T06:47:25.000Z,-2.79
2023-02-27T06:48:25.000Z,-2.78
2023-02-27T06:49:25.000Z,-2.85
2023-02-27T06:50:25.000Z,-2.82
2023-02-27T06:51:25.000Z,-2.82
2023-02-27T06:52:25.000Z,-2.86
2023-02-27T06:53:25.000Z,-2.82
2023-02-27T06:54:25.000Z,-2.85
2023-02-27T06:55:25.000Z,-2.85
2023-02-27T06:56:25.000Z,-2.82
2023-02-27T06:57:25.000Z,-2.75
2023-02-27T06:58:25.000Z,-2.75
2023-02-27T06:59:25.000Z,-2.74
2023-02-27T07:00:25.000Z,-2.68
2023-02-27T07:01:25.000Z,-2.69
2023-02-27T07:02:25.000Z,-2.60
2023-02-27T07:03:25.000Z,-2.57
2023-02-27T07:04:25.000Z,-2.56
2023-02-27T07:05:25.000Z,-2.48
2023-02-27T07:06:25.000Z,-2.47
2023-02-27T07:07:25.000Z,-2.43
2023-02-27T07:08:25.000Z,-2.38
2023-02-27T07:09:25.000Z,-2.33
2023-02-27T07:10:25.000Z,-2.26
2023-02-27T07:11:25.000Z,-2.18
2023-02-27T07:12:25.000Z,-2.11
2023-02-27T07:13:25.000Z,-2.08
2023-02-27T07:14:25.000Z,-2.02
2023-02-27T07:15:25.000Z,-1.99
2023-02-27T07:16:25.000Z,-1.93
2023-02-27T07:17:25.000Z,-1.93
2023-02-27T07:18:25.000Z,-1.84
2023-02-27T07:19:25.000Z,-1.82
2023-02-27T07:20:25.000Z,-1.78
2023-02-27T07:21:25.000Z,-1.75
2023-02-27T07:22:25.000Z,-1.67
2023-02-27T07:23:25.000Z,-1.66
2023-02-27T07:24:25.000Z,-1.63
2023-02-27T07:25:25.000Z,-1.59
2023-02-27T07:26:25.000Z,-1.53
2023-02-27T07:27:25.000Z,-1.49
2023-02-27T07:28:25.000Z,-1.48
2023-02-27T07:29:25.000Z,-1.41
2023-02-27T07:30:25.000Z,-1.35
2023-02-27T07:31:25.000Z,-1.30
2023-02-27T07:32:25.000Z,-1.28
2023-02-27T07:33:25.000Z,-1.21
2023-02-27T07:34:25.000Z,-1.18
2023-02-27T07:35:25.000Z,-1.17
2023-02-27T07:36:25.000Z,-1.07
2023-02-27T07:37:25.000Z,-1.09
2023-02-27T07:38:25.000Z,-1.06
2023-02-27T07:39:25.000Z,-1.03
2023-02-27T07:40:25.000Z,-0.99
2023-02-27T07:41:25.000Z,-0.94
2023-02-27T07:42:25.000Z,-0.91
2023-02-27T07:43:25.000Z,-0.89
2023-02-27T07:44:25.000Z,-0.83
2023-02-27T07:45:25.000Z,-0.83
2023-02-27T07:46:25.000Z,-0.77
2023-02-27T07:47:25.000Z,-0.73
2023-02-27T07:48:25.000Z,-0.73
2023-02-27T07:49:25.000Z,-0.69
2023-02-27T07:50:25.000Z,-0.69
2023-02-27T07:51:25.000Z,-0.63
2023-02-27T07:52:24.000Z,-0.65
2023-02-27T07:53:24.000Z,-0.65
2023-02-27T07:54:24.000Z,-0.59
2023-02-27T07:55:24.000Z,-0.57
2023-02-27T07:56:24.000Z,-0.52
2023-02-27T07:57:24.000Z,-0.51
2023-02-27T07:58:24.000Z,-0.48
2023-02-27T07:59:24.000Z,-0.45
2023-02-27T08:00:24.000Z,-0.45
2023-02-27T08:01:24.000Z,-0.39
2023-02-27T08:02:24.000Z,-0.37
2023-02-27T08:03:24.000Z,-0.37
2023-02-27T08:04:24.000Z,-0.36
2023-02-27T08:05:24.000Z,-0.34
2023-02-27T08:06:24.000Z,-0.31
2023-02-27T08:07:24.000Z,-0.27
2023-02-27T08:08:24.000Z,-0.30
2023-02-27T08:09:24.000Z,-0.26
2023-02-27T08:10:24.000Z,-0.30
2023-02-27T08:11:24.000Z,-0.29
2023-02-27T08:12:24.000Z,-0.30
2023-02-27T08:13:24.000Z,-0.30
2023-02-27T08:14:24.000Z,-0.27
2023-02-27T08:15:24.000Z,-0.29
2023-02-27T08:16:24.000Z,-0.26
2023-02-27T08:17:24.000Z,-0.19
2023-02-27T08:18:24.000Z,-0.12
2023-02-27T08:19:24.000Z,-0.13
2023-02-27T08:20:24.000Z,-0.09
2023-02-27T08:21:24.000Z,-0.06
2023-02-27T08:22:24.000Z,-0.09
2023-02-27T08:23:24.000Z,-0.13
2023-02-27T08:24:24.000Z,-0.09
2023-02-27T08:25:24.000Z,-0.11
2023-02-27T08:26:24.000Z,-0.09
2023-02-27T08:27:24.000Z,-0.15
2023-02-27T08:28:24.000Z,-0.16
2023-02-27T08:29:24.000Z,-0.16
2023-02-27T08:30:23.000Z,-0.18
2023-02-27T08:31:23.000Z,-0.13
2023-02-27T08:32:23.000Z,-0.16
2023-02-27T08:33:23.000Z,-0.18
2023-02-27T08:34:23.000Z,-0.16
2023-02-27T08:35:23.000Z,-0.16
2023-02-27T08:36:23.000Z,-0.22
2023-02-27T08:37:23.000Z,-0.16
2023-02-27T08:38:23.000Z,-0.12
2023-02-27T08:39:23.000Z,-0.11
2023-02-27T08:40:23.000Z,-0.12
2023-02-27T08:41:23.000Z,-0.08
2023-02-27T08:42:23.000Z,0.00
2023-02-27T08:43:23.000Z,0.02
2023-02-27T08:44:23.000Z,0.00
2023-02-27T08:45:23.000Z,0.05
2023-02-27T08:46:23.000Z,0.02
2023-02-27T08:47:23.000Z,0.02
2023-02-27T08:48:23.000Z,0.02
2023-02-27T08:49:23.000Z,0.07
2023-02-27T08:50:23.000Z,0.05
2023-02-27T08:51:23.000Z,0.09
2023-02-27T08:52:23.000Z,0.13
2023-02-27T08:53:23.000Z,0.12
2023-02-27T08:54:23.000Z,0.15
2023-02-27T08:55:23.000Z,0.21
2023-02-27T08:56:23.000Z,0.20
2023-02-27T08:57:23.000Z,0.23
2023-02-27T08:58:23.000Z,0.25
2023-02-27T08:59:23.000Z,0.24
2023-02-27T09:00:23.000Z,0.24
2023-02-27T09:01:23.000Z,0.24
2023-02-27T09:02:22.000Z,0.20
2023-02-27T09:03:22.000Z,0.21
2023-02-27T09:04:22.000Z,0.18
2023-02-27T09:05:22.000Z,0.20
2023-02-27T09:06:22.000Z,0.20
2023-02-27T09:07:22.000Z,0.24
2023-02-27T09:08:22.000Z,0.25
2023-02-27T09:09:22.000Z,0.34
2023-02-27T09:10:22.000Z,0.41
2023-02-27T09:11:22.000Z,0.46
2023-02-27T09:12:22.000Z,0.46
2023-02-27T09:13:22.000Z,0.49
2023-02-27T09:14:22.000Z,0.46
2023-02-27T09:15:22.000Z,0.48
2023-02-27T09:16:22.000Z,0.53
2023-02-27T09:17:22.000Z,0.57
2023-02-27T09:18:22.000Z,0.57
2023-02-27T09:19:22.000Z,0.51
2023-02-27T09:20:22.000Z,0.49
2023-02-27T09:21:22.000Z,0.52
2023-02-27T09:22:22.000Z,0.51
2023-02-27T09:23:22.000Z,0.58
2023-02-27T09:24:22.000Z,0.62
2023-02-27T09:25:22.000Z,0.64
2023-02-27T09:26:22.000Z,0.68
2023-02-27T09:27:22.000Z,0.65
2023-02-27T09:28:22.000Z,0.64
2023-02-27T09:29:22.000Z,0.58
2023-02-27T09:30:21.000Z,0.58
2023-02-27T09:31:21.000Z,0.53
2023-02-27T09:32:21.000Z,0.58
2023-02-27T09:33:21.000Z,0.61
2023-02-27T09:34:21.000Z,0.62
2023-02-27T09:35:21.000Z,0.70
2023-02-27T09:36:21.000Z,0.75
2023-02-27T09:37:21.000Z,0.79
2023-02-27T09:38:21.000Z,0.78
2023-02-27T09:39:21.000Z,0.83
2023-02-27T09:40:21.000Z,0.90
2023-02-27T09:41:21.000Z,0.90
2023-02-27T09:42:21.000Z,0.92
2023-02-27T09:43:21.000Z,0.90
2023-02-27T09:44:21.000Z,0.96
2023-02-27T09:45:21.000Z,1.00
2023-02-27T09:46:21.000Z,1.01
2023-02-27T09:47:21.000Z,1.03
2023-02-27T09:48:21.000Z,1.10
2023-02-27T09:49:21.000Z,1.12
2023-02-27T09:50:21.000Z,1.18
2023-02-27T09:51:21.000Z,1.16
2023-02-27T09:52:21.000Z,1.19
2023-02-27T09:53:20.000Z,1.22
2023-02-27T09:54:20.000Z,1.29
2023-02-27T09:55:20.000Z,1.29
2023-02-27T09:56:20.000Z,1.33
2023-02-27T09:57:20.000Z,1.28
2023-02-27T09:58:20.000Z,1.28
2023-02-27T09:59:20.000Z,1.25
2023-02-27T10:00:20.000Z,1.26
2023-02-27T10:01:20.000Z,1.26
2023-02-27T10:02:20.000Z,1.26
2023-02-27T10:03:20.000Z,1.32
2023-02-27T10:04:20.000Z,1.25
2023-02-27T10:05:20.000Z,1.32
2023-02-27T10:06:20.000Z,1.36
2023-02-27T10:07:20.000Z,1.37
2023-02-27T10:08:20.000Z,1.39
2023-02-27T10:09:20.000Z,1.44
2023-02-27T10:10:20.000Z,1.42
2023-02-27T10:11:20.000Z,1.36
2023-02-27T10:12:20.000Z,1.39
2023-02-27T10:13:20.000Z,1.39
2023-02-27T10:14:19.000Z,1.44
2023-02-27T10:15:19.000Z,1.43
2023-02-27T10:16:19.000Z,1.47
2023-02-27T10:17:19.000Z,1.55
2023-02-27T10:18:19.000Z,1.61
2023-02-27T10:19:19.000Z,1.71
2023-02-27T10:20:19.000Z,1.71
2023-02-27T10:21:19.000Z,1.72
2023-02-27T10:22:19.000Z,1.76
2023-02-27T10:23:19.000Z,1.80
2023-02-27T10:24:19.000Z,1.82
2023-02-27T10:25:19.000Z,1.79
2023-02-27T10:26:19.000Z,1.73
2023-02-27T10:27:19.000Z,1.75
2023-02-27T10:28:19.000Z,1.85
2023-02-27T10:29:19.000Z,1.90
2023-02-27T10:30:19.000Z,1.85
2023-02-27T10:31:19.000Z,1.85
2023-02-27T10:32:19.000Z,1.87
2023-02-27T10:33:18.000Z,1.87
2023-02-27T10:34:18.000Z,1.91
2023-02-27T10:35:18.000Z,1.91
2023-02-27T10:36:18.000Z,1.93
2023-02-27T10:37:18.000Z,1.93
2023-02-27T10:38:18.000Z,1.82
2023-02-27T10:39:18.000Z,1.80
2023-02-27T10:40:18.000Z,1.85
2023-02-27T10:41:18.000Z,1.87
2023-02-27T10:42:18.000Z,1.90
2023-02-27T10:43:18.000Z,1.91
2023-02-27T10:44:18.000Z,1.98
2023-02-27T10:46:36.000Z,1.91
2023-02-27T10:46:36.000Z,1.89
2023-02-27T10:47:36.000Z,1.89
2023-02-27T10:48:36.000Z,1.90
2023-02-27T10:49:36.000Z,1.98
2023-02-27T10:50:36.000Z,2.04
2023-02-27T10:51:36.000Z,2.06
2023-02-27T10:52:36.000Z,2.04
2023-02-27T10:53:36.000Z,2.09
2023-02-27T10:54:36.000Z,2.10
2023-02-27T10:55:36.000Z,2.10
2023-02-27T10:56:36.000Z,2.10
2023-02-27T10:57:36.000Z,2.16
2023-02-27T10:58:36.000Z,2.17
2023-02-27T10:59:36.000Z,2.20
2023-02-27T11:00:36.000Z,2.23
2023-02-27T11:01:36.000Z,2.20
2023-02-27T11:02:36.000Z,2.17
2023-02-27T11:03:36.000Z,2.15
2023-02-27T11:04:36.000Z,2.10
2023-02-27T11:05:36.000Z,2.12
2023-02-27T11:06:36.000Z,2.15
2023-02-27T11:07:36.000Z,2.26
2023-02-27T11:08:36.000Z,2.30
2023-02-27T11:09:36.000Z,2.33
2023-02-27T11:10:36.000Z,2.38
2023-02-27T11:11:36.000Z,2.48
2023-02-27T11:12:36.000Z,2.51
2023-02-27T11:13:36.000Z,2.53
2023-02-27T11:14:36.000Z,2.56
2023-02-27T11:15:36.000Z,2.63
2023-02-27T11:16:36.000Z,2.64
2023-02-27T11:17:36.000Z,2.63
2023-02-27T11:18:36.000Z,2.67
2023-02-27T11:19:36.000Z,2.63
2023-02-27T11:20:36.000Z,2.70
2023-02-27T11:21:36.000Z,2.73
2023-02-27T11:22:36.000Z,2.70
2023-02-27T11:23:36.000Z,2.71
2023-02-27T11:24:36.000Z,2.63
2023-02-27T11:25:36.000Z,2.58
2023-02-27T11:26:36.000Z,2.61
2023-02-27T11:27:36.000Z,2.59
2023-02-27T11:28:36.000Z,2.56
2023-02-27T11:29:36.000Z,2.64
2023-02-27T11:30:36.000Z,2.66
2023-02-27T11:31:36.000Z,2.67
2023-02-27T11:32:36.000Z,2.67
2023-02-27T11:33:36.000Z,2.58
2023-02-27T11:34:36.000Z,2.58
2023-02-27T11:35:36.000Z,2.55
2023-02-27T11:36:36.000Z,2.58
2023-02-27T11:37:36.000Z,2.61
2023-02-27T11:38:36.000Z,2.61
2023-02-27T11:39:36.000Z,2.66
2023-02-27T11:40:36.000Z,2.73
2023-02-27T11:40:36.000Z,2.73
2023-02-27T11:41:36.000Z,2.84
2023-02-27T11:41:36.000Z,2.84
2023-02-27T11:42:36.000Z,2.92
2023-02-27T11:42:36.000Z,2.92
2023-02-27T11:43:36.000Z,2.98
2023-02-27T11:43:36.000Z,2.98
2023-02-27T11:44:36.000Z,3.07
2023-02-27T11:44:36.000Z,3.07
2023-02-27T11:45:36.000Z,3.13
2023-02-27T11:46:36.000Z,3.06
2023-02-27T11:47:36.000Z,3.02
2023-02-27T11:48:36.000Z,3.03
2023-02-27T11:49:36.000Z,3.03
2023-02-27T11:50:36.000Z,2.98
2023-02-27T11:51:36.000Z,3.00
2023-02-27T11:52:36.000Z,3.05
2023-02-27T11:53:36.000Z,3.05
2023-02-27T11:54:36.000Z,3.15
2023-02-27T11:55:36.000Z,3.23
2023-02-27T11:56:36.000Z,3.24
2023-02-27T11:57:36.000Z,3.31
2023-02-27T11:58:36.000Z,3.39
2023-02-27T11:59:36.000Z,3.46
2023-02-27T12:00:36.000Z,3.54
2023-02-27T12:01:36.000Z,3.57
2023-02-27T12:02:36.000Z,3.53
2023-02-27T12:03:36.000Z,3.47
2023-02-27T12:04:36.000Z,3.34
2023-02-27T12:05:36.000Z,3.30
2023-02-27T12:06:36.000Z,3.33
2023-02-27T12:07:36.000Z,3.30
2023-02-27T12:08:36.000Z,3.27
2023-02-27T12:09:36.000Z,3.21
2023-02-27T12:10:36.000Z,3.12
2023-02-27T12:11:35.000Z,3.10
2023-02-27T12:12:35.000Z,3.13
2023-02-27T12:13:35.000Z,3.20
2023-02-27T12:14:35.000Z,3.23
2023-02-27T12:15:35.000Z,3.27
2023-02-27T12:16:35.000Z,3.34
2023-02-27T12:17:35.000Z,3.33
2023-02-27T12:18:35.000Z,3.42
2023-02-27T12:19:35.000Z,3.47
2023-02-27T12:20:35.000Z,3.44
2023-02-27T12:21:35.000Z,3.42
2023-02-27T12:22:35.000Z,3.43
2023-02-27T12:23:35.000Z,3.46
2023-02-27T12:24:35.000Z,3.46
2023-02-27T12:25:35.000Z,3.53
2023-02-27T12:26:35.000Z,3.53
2023-02-27T12:27:35.000Z,3.49
2023-02-27T12:28:35.000Z,3.40
2023-02-27T12:29:35.000Z,3.34
2023-02-27T12:30:35.000Z,3.34
2023-02-27T12:31:35.000Z,3.39
2023-02-27T12:32:35.000Z,3.34
2023-02-27T12:33:35.000Z,3.39
2023-02-27T12:34:35.000Z,3.30
2023-02-27T12:35:35.000Z,3.39
2023-02-27T12:36:35.000Z,3.40
2023-02-27T12:37:35.000Z,3.39
2023-02-27T12:38:35.000Z,3.44
2023-02-27T12:39:35.000Z,3.42
2023-02-27T12:40:35.000Z,3.42
2023-02-27T12:41:35.000Z,3.49
2023-02-27T12:42:35.000Z,3.46
2023-02-27T12:43:35.000Z,3.49
2023-02-27T12:44:35.000Z,3.49
2023-02-27T12:45:35.000Z,3.47
2023-02-27T12:46:35.000Z,3.49
2023-02-27T12:47:35.000Z,3.50
2023-02-27T12:48:35.000Z,3.53
2023-02-27T12:49:35.000Z,3.50
2023-02-27T12:50:35.000Z,3.53
2023-02-27T12:51:35.000Z,3.50
2023-02-27T12:52:35.000Z,3.53
2023-02-27T12:53:35.000Z,3.61
2023-02-27T12:54:35.000Z,3.68
2023-02-27T12:55:35.000Z,3.71
2023-02-27T12:56:35.000Z,3.70
2023-02-27T12:57:35.000Z,3.67
2023-02-27T12:58:35.000Z,3.62
2023-02-27T12:59:35.000Z,3.57
2023-02-27T13:00:35.000Z,3.46
2023-02-27T13:01:35.000Z,3.39
2023-02-27T13:02:35.000Z,3.34
2023-02-27T13:03:35.000Z,3.31
2023-02-27T13:04:35.000Z,3.31
2023-02-27T13:05:35.000Z,3.23
2023-02-27T13:06:35.000Z,3.25
2023-02-27T13:07:35.000Z,3.28